Terminal Aerodrome Forecast
Issued by NWS

Current Version | Previous Version | Text Only | Print | Product List | Glossary On
Versions: 1 2 3 4 5 6 7 8 9 10 11 12 13 14 15 16 17 18
000 FTUS41 KGYX 281720 TAFLEB TAF KLEB 281720Z 2818/2918 33005KT P6SM SCT050 SCT250 FM290000 00000KT P6SM SCT250 TEMPO 2908/2912 1/2SM FG VV001=

USA.gov is the U.S. government's official web portal to all federal, state and local government web resources and services.